logo
Search for airport 
image banner adimage banner adimage banner ad
image banner ad

MRHG - Hacienda Rancho Grande

Located in Sarapiqui, Costa Rica

ICAO - MRHG, IATA -

Data provided by Airmate  

General information

Coordinates: N10°27'0" W84°4'60"
Elevation is 98 feet MSL.
 
View others Airports in Heredia

Operational data

Special qualification required
Current time UTC:
Current local time:
Weather at : MROC - Juan Santamaria Intl ( 53 km )
METAR: MROC 170600Z 02008KT 350V060 CAVOK 22/14 A3002 NOSIG
TAF: MROC 170540Z 1706/1806 08007KT CAVOK TX32/1719Z TN20/1711Z BECMG 1717/1719 25007KT BECMG 1800/1802 09008KT
View NOTAMs / SUP AIP / TFR affecting this airport [VIEW]
Communications frequencies: [VIEW]

Runways:

RWY identifierQFULength (ft)Width (ft)SurfaceLDA (ft)
13229749UNK
31229749UNK

Airport contact information

Address: Sarapiqui Costa Rica

Satellite view of MRHG